Nearby METAR Reports

 

YAMB - Amberley, Australia
Distance from station: NW 41km
Updated: 25/04/2024 21:00
Overcast
Overcast
 Wind from ENE
Wind: ENE 11 km/h
Temperature: 20°C
Dew Point: 17°C
Humidity: 83%
Barometer: 1017 hPa
Clouds: Overcast
Visibility: 10 km
Cloud details: Overcast 1280 m
2024/04/25 11:00 YAMB 251100Z AUTO 07006KT 9999 // OVC042 20/17 Q1017 RF00.0/000.0
YBBN - Brisbane Intl Ar, Australia
Distance from station: N 55km
Updated: 25/04/2024 21:00
Clear
Clear
 Wind from SE
Wind: SE 13 km/h
Temperature: 21°C
Dew Point: 17°C
Humidity: 78%
Barometer: 1017 hPa
Summary: Clear
Visibility: greater than 10 km
2024/04/25 11:00 YBBN 251100Z 14007KT CAVOK 21/17 Q1017
 
YBCG - Coolangatta Aws, Australia
Distance from station: SE 57km
Updated: 25/04/2024 21:00
Light rain, Showers, Partly cloudy
Light rain, Showers, Partly cloudy
 Wind from S
Wind: S 9 km/h
Temperature: 20°C
Dew Point: 17°C
Humidity: 83%
Barometer: 1017 hPa
Summary: Light rain, Showers
Clouds: Partly Cloudy
Visibility: 10 km
Cloud details: Partly Cloudy 732 m
Partly Cloudy 1128 m
Partly Cloudy 1402 m
2024/04/25 11:00 YBCG 251100Z AUTO 18005KT 9999 -SHRA SCT024 SCT037 SCT046 20/17 Q1017
YLIS - Lismore Arpt, Australia
Distance from station: SSE 110km
Updated: 16/11/2022 10:09
NOT Current
Mostly Cloudy
Mostly Cloudy
 Wind from W
Wind: W 28 km/h
Temperature: 27°C
Dew Point: 11°C
Humidity: 37%
Barometer: 1007 hPa
Clouds: Mostly Cloudy
Visibility: 10 km
Cloud details: Mostly Cloudy 2195 m
2022/11/16 00:09 YLIS 160009Z AUTO 26015KT 9999 // BKN072 27/11 Q1007
 
YCAS - Casino Airport, Australia
Distance from station: S 113km
Updated: 14/11/2022 13:33
NOT Current

 Wind from N
Wind: N 28 km/h, Gust: 48 km/h
Temperature: 31°C
Heat Index: 33°C
Dew Point: 19°C
Humidity: 49%
Barometer: 1004 hPa
2022/11/14 03:33 YCAS 140333Z AUTO 35015G26KT //// // ////// 31/19 Q1004
YBNA - Ballina Byron G., Australia
Distance from station: SSE 119km
Updated: 12/05/2022 10:00
NOT Current
Mostly Cloudy
Mostly Cloudy
 Wind from ENE
Wind: ENE 28 km/h
Temperature: 23°C
Dew Point: 17°C
Humidity: 69%
Barometer: 1020 hPa
Clouds: Mostly Cloudy
Visibility: 10 km
Cloud details: Partly Cloudy 945 m
Mostly Cloudy 1158 m
Mostly Cloudy 1494 m
2022/05/12 00:00 YBNA 120000Z AUTO 07015KT 9999 // SCT031 BKN038 BKN049 23/17 Q1020
 
YBOK - Oakey (army/Civ), Australia
Distance from station: WNW 139km
Updated: 12/05/2022 10:00
NOT Current
Light rain, Overcast
Light rain, Overcast
 Wind from E
Wind: E 20 km/h
Temperature: 19°C
Dew Point: 18°C
Humidity: 94%
Barometer: 1018 hPa
Summary: Light Rain
Clouds: Overcast
Visibility: 3 km
Cloud details: Mostly Cloudy 244 m
Overcast 671 m
2022/05/12 00:00 YBOK 120000Z 09011KT 3000 -RA BKN008 OVC022 19/18 Q1018